Map

Track Data

SID SEASON NUMBER BASIN SUBBASIN NAME ISO_TIME NATURE LAT LON WMO_WIND WMO_PRES WMO_AGENCY TRACK_TYPE DIST2LAND LANDFALL IFLAG USA_AGENCY USA_ATCF_ID USA_LAT USA_LON USA_RECORD USA_STATUS USA_WIND USA_PRES USA_SSHS USA_R34_NE USA_R34_SE USA_R34_SW USA_R34_NW USA_R50_NE USA_R50_SE USA_R50_SW USA_R50_NW USA_R64_NE USA_R64_SE USA_R64_SW USA_R64_NW USA_POCI USA_ROCI USA_RMW USA_EYE TOKYO_LAT TOKYO_LON TOKYO_GRADE TOKYO_WIND TOKYO_PRES TOKYO_R50_DIR TOKYO_R50_LONG TOKYO_R50_SHORT TOKYO_R30_DIR TOKYO_R30_LONG TOKYO_R30_SHORT TOKYO_LAND CMA_LAT CMA_LON CMA_CAT CMA_WIND CMA_PRES HKO_LAT HKO_LON HKO_CAT HKO_WIND HKO_PRES NEWDELHI_LAT NEWDELHI_LON NEWDELHI_GRADE NEWDELHI_WIND NEWDELHI_PRES NEWDELHI_CI NEWDELHI_DP NEWDELHI_POCI REUNION_LAT REUNION_LON REUNION_TYPE REUNION_WIND REUNION_PRES REUNION_TNUM REUNION_CI REUNION_RMW REUNION_R34_NE REUNION_R34_SE REUNION_R34_SW REUNION_R34_NW REUNION_R50_NE REUNION_R50_SE REUNION_R50_SW REUNION_R50_NW REUNION_R64_NE REUNION_R64_SE REUNION_R64_SW REUNION_R64_NW BOM_LAT BOM_LON BOM_TYPE BOM_WIND BOM_PRES BOM_TNUM BOM_CI BOM_RMW BOM_R34_NE BOM_R34_SE BOM_R34_SW BOM_R34_NW BOM_R50_NE BOM_R50_SE BOM_R50_SW BOM_R50_NW BOM_R64_NE BOM_R64_SE BOM_R64_SW BOM_R64_NW BOM_ROCI BOM_POCI BOM_EYE BOM_POS_METHOD BOM_PRES_METHOD NADI_LAT NADI_LON NADI_CAT NADI_WIND NADI_PRES WELLINGTON_LAT WELLINGTON_LON WELLINGTON_WIND WELLINGTON_PRES DS824_LAT DS824_LON DS824_STAGE DS824_WIND DS824_PRES TD9636_LAT TD9636_LON TD9636_STAGE TD9636_WIND TD9636_PRES TD9635_LAT TD9635_LON TD9635_WIND TD9635_PRES TD9635_ROCI NEUMANN_LAT NEUMANN_LON NEUMANN_CLASS NEUMANN_WIND NEUMANN_PRES MLC_LAT MLC_LON MLC_CLASS MLC_WIND MLC_PRES USA_GUST BOM_GUST BOM_GUST_PER REUNION_GUST REUNION_GUST_PER USA_SEAHGT USA_SEARAD_NE USA_SEARAD_SE USA_SEARAD_SW USA_SEARAD_NW STORM_SPEED STORM_DIR
2022254N21160 2022 59 WP MM MERBOK 2022-09-10 18:00:00 NR 20.9000 159.800 PROVISIONAL 2470 2439 O_____________ tcvitals WP152022 20.9000 159.800 29 1000 -1 1005 140 35 5 311
2022254N21160 2022 59 WP MM MERBOK 2022-09-10 21:00:00 NR 21.0626 159.598 PROVISIONAL 2439 2424 P_____________ WP152022 21.0626 159.598 29 1000 -1 1005 140 35 4 317
2022254N21160 2022 59 WP MM MERBOK 2022-09-11 00:00:00 NR 21.2000 159.500 PROVISIONAL 2424 2416 O_____________ tcvitals WP152022 21.2000 159.500 29 1000 -1 1005 140 35 2 0
2022254N21160 2022 59 WP MM MERBOK 2022-09-11 03:00:00 NR 21.2874 159.582 PROVISIONAL 2423 2423 P_____________ WP152022 21.2874 159.582 29 1000 -1 1004 145 32 3 70
2022254N21160 2022 59 WP MM MERBOK 2022-09-11 06:00:00 NR 21.3000 159.800 PROVISIONAL 2438 2438 O_____________ tcvitals WP152022 21.3000 159.800 29 1000 -1 1004 150 30 5 103
2022254N21160 2022 59 WP MM MERBOK 2022-09-11 09:00:00 NR 21.1775 160.078 PROVISIONAL 2468 2468 P_____________ WP152022 21.1775 160.078 32 998 -1 1004 150 37 6 110
2022254N21160 2022 59 WP MM MERBOK 2022-09-11 12:00:00 NR 21.1000 160.400 PROVISIONAL 2498 2497 O_____________ tcvitals WP152022 21.1000 160.400 35 996 0 35 45 1004 150 45 6 79
2022254N21160 2022 59 WP MM MERBOK 2022-09-11 15:00:00 NR 21.2925 160.715 PROVISIONAL 2504 2503 P_____________ WP152022 21.2925 160.715 35 997 0 67 52 1004 157 45 7 54
2022254N21160 2022 59 WP MM MERBOK 2022-09-11 18:00:00 NR 21.5000 161.000 PROVISIONAL 2511 2511 O_____________ tcvitals WP152022 21.5000 161.000 35 999 0 100 60 45 1004 165 45 5 72
2022254N21160 2022 59 WP MM MERBOK 2022-09-11 21:00:00 NR 21.4424 161.208 PROVISIONAL 2534 2534 P_____________ WP152022 21.4424 161.208 35 999 0 72 77 28 1004 165 37 4 105
2022254N21160 2022 59 WP MM MERBOK 2022-09-12 00:00:00 NR 21.4000 161.400 PROVISIONAL 2549 2549 O_____________ tcvitals WP152022 21.4000 161.400 35 1000 0 45 95 11 45 1004 165 30 4 70
2022254N21160 2022 59 WP MM MERBOK 2022-09-12 03:00:00 NR 21.5900 161.635 PROVISIONAL 2549 2549 P_____________ WP152022 21.5900 161.635 35 1000 0 47 92 45 1004 170 40 7 43
2022254N21160 2022 59 WP MM MERBOK 2022-09-12 06:00:00 NR 21.9000 161.900 PROVISIONAL 2549 2541 O_____________ tcvitals WP152022 21.9000 161.900 35 1000 0 50 90 45 1004 175 50 8 39
2022254N21160 2022 59 WP MM MERBOK 2022-09-12 09:00:00 NR 22.2350 162.193 PROVISIONAL 2550 2543 P_____________ WP152022 22.2350 162.193 40 997 0 85 120 45 1006 180 55 9 38
2022254N21160 2022 59 WP MM MERBOK 2022-09-12 12:00:00 NR 22.6000 162.500 PROVISIONAL 2544 2538 O_____________ tcvitals WP152022 22.6000 162.500 45 995 0 120 150 75 45 1008 185 60 9 39
2022254N21160 2022 59 WP MM MERBOK 2022-09-12 15:00:00 NR 22.9576 162.830 PROVISIONAL 2540 2540 P_____________ WP152022 22.9576 162.830 48 994 0 120 150 75 45 1008 185 47 9 38
2022254N21160 2022 59 WP MM MERBOK 2022-09-12 18:00:00 NR 23.3000 163.100 PROVISIONAL 2543 2530 O_____________ tcvitals WP152022 23.3000 163.100 51 994 0 120 150 75 45 1008 185 35 8 32
2022254N21160 2022 59 WP MM MERBOK 2022-09-12 21:00:00 NR 23.5924 163.260 PROVISIONAL 2539 2518 P_____________ WP152022 23.5924 163.260 52 990 0 137 155 85 67 1007 185 32 6 17
2022254N21160 2022 59 WP MM MERBOK 2022-09-13 00:00:00 NR 23.9000 163.300 PROVISIONAL 2518 2484 O_____________ tcvitals WP152022 23.9000 163.300 54 987 0 155 160 95 90 1007 185 30 7 359
2022254N21160 2022 59 WP MM MERBOK 2022-09-13 03:00:00 NR 24.2775 163.238 PROVISIONAL 2484 2449 P_____________ WP152022 24.2775 163.238 54 986 0 152 155 87 92 1007 185 30 8 347
2022254N21160 2022 59 WP MM MERBOK 2022-09-13 06:00:00 NR 24.7000 163.100 PROVISIONAL 2449 2416 O_____________ tcvitals WP152022 24.7000 163.100 54 986 0 150 150 80 95 1007 185 30 9 344
2022254N21160 2022 59 WP MM MERBOK 2022-09-13 09:00:00 NR 25.1049 162.979 PROVISIONAL 2416 2368 P_____________ WP152022 25.1049 162.979 57 985 0 135 138 85 92 1008 195 30 9 343
2022254N21160 2022 59 WP MM MERBOK 2022-09-13 12:00:00 NR 25.6000 162.800 PROVISIONAL 2368 2306 O_____________ tcvitals WP152022 25.6000 162.800 60 985 0 120 126 90 90 1009 205 30 13 339
2022254N21160 2022 59 WP MM MERBOK 2022-09-13 15:00:00 NR 26.2703 162.479 PROVISIONAL 2300 2233 P_____________ WP152022 26.2703 162.479 62 984 0 135 138 90 87 1008 205 30 15 339
2022254N21160 2022 59 WP MM MERBOK 2022-09-13 18:00:00 NR 27.0000 162.200 PROVISIONAL 2233 2197 O_____________ tcvitals WP152022 27.0000 162.200 64 983 1 150 150 90 85 1008 205 30 14 348
2022254N21160 2022 59 WP MM MERBOK 2022-09-13 21:00:00 NR 27.6424 162.154 PROVISIONAL 2200 2162 P_____________ WP152022 27.6424 162.154 64 981 1 170 160 92 100 1008 240 30 13 1
2022254N21160 2022 59 WP MM MERBOK 2022-09-14 00:00:00 NR 28.3000 162.200 PROVISIONAL 2162 2131 O_____________ tcvitals WP152022 28.3000 162.200 64 979 1 190 170 95 115 1008 275 30 14 2
2022254N21160 2022 59 WP MM MERBOK 2022-09-14 03:00:00 NR 28.9900 162.222 PROVISIONAL 2126 2077 P_____________ WP152022 28.9900 162.222 67 978 1 165 150 95 110 1008 275 30 15 0
2022254N21160 2022 59 WP MM MERBOK 2022-09-14 06:00:00 NR 29.8000 162.200 PROVISIONAL 2067 1970 O_____________ tcvitals WP152022 29.8000 162.200 70 977 1 140 130 95 105 1008 275 30 18 354
2022254N21160 2022 59 WP MM MERBOK 2022-09-14 09:00:00 NR 30.7850 161.991 PROVISIONAL 1960 1859 P_____________ WP152022 30.7850 161.991 70 976 1 155 152 82 95 1008 275 22 21 353
2022254N21160 2022 59 WP MM MERBOK 2022-09-14 12:00:00 NR 31.9000 161.900 PROVISIONAL 1849 1761 O_____________ tcvitals WP152022 31.9000 161.900 70 976 1 170 175 70 85 1008 275 14 23 4
2022254N21160 2022 59 WP MM MERBOK 2022-09-14 15:00:00 NR 33.0725 162.189 PROVISIONAL 1751 1677 P_____________ WP152022 33.0725 162.189 -5 25 16
2022254N21160 2022 59 WP MM MERBOK 2022-09-14 18:00:00 NR 34.2672 162.730 PROVISIONAL 1668 O_____________ tcvitals WP152022 34.2672 162.730 -5 26 21

Digital Typhoon Data and Search

About IBTrACS Database

This database is a web-friendly format of International Best Track Archive for Climate Stewardship (IBTrACS), a global best track data archive curated by NOAA dating back to 1842.

Updated: 2022-09-30